Canton, MO

6:04 AM CST on February 01, 2015 (GMT -0600)
LIVE WEATHER | Change Station
CLOSE
Current Station
Personal Weather Station
Location: Quincy, IL
Elevation: 620 ft
Nearby Weather Stations
Active Advisory: Winter Storm Warning Active Notice: Local Storm Report

Elev 620 ft 40.00 °N, 91.38 °W | Updated 14 seconds ago

Snow
Snow
36.7 °F
Feels Like 37 °F
N
2.7
Wind Variable Wind from SE
Gusts 3.1 mph

Today
High -- | Low -- °F
--% Chance of Precip.
Yesterday
High -- | Low -- °F
Precip. -- in
7:15 AM 5:24 PM
Waxing Gibbous, 94% visible
Pressure 29.78 in
Visibility 0.8 miles
Clouds Overcast 400 ft
Windchill 37 °F
Dew Point 37 °F
Humidity 100%
Rainfall 0.00 in
Snow Depth Not available.
UV 0 out of 12
Pollen .10 out of 12
Air Quality Not available.
Flu Activity Not available.
SPECI KUIN 011149Z AUTO 13008KT 3/4SM -SN BR OVC004 00/M01 A2978 RMK AO2 P0006

More Conditions Fewer Conditions

Pressure 29.78 in
Visibility 0.8 miles
Clouds Overcast 400 ft
Windchill 37 °F
Dew Point 37 °F
Humidity 100%
Rainfall 0.00 in
Snow Depth Not available.
UV 0 out of 12
Pollen .10 out of 12
Air Quality Not available.
Flu Activity Not available.
SPECI KUIN 011149Z AUTO 13008KT 3/4SM -SN BR OVC004 00/M01 A2978 RMK AO2 P0006

More Conditions Fewer Conditions

10-Day Weather Forecast

Almanac

Astronomy

Feb. 01, 2015 Rise Set
Actual Time
Civil Twilight
Nautical Twilight
Astronomical Twilight
Moon
Length of Visible Light
Length of Day
Tomorrow will be .
, % of the Moon is Illuminated

Today's Extremes

State Highs State Lows

Community

WunderPhotos

Upload Photos

1,792,348 photos uploaded!

WunderBlogs® & News

Nearby

Air Quality

  Air Quality AQ Index Pollutant
Not available.

Snow Depth

Station Depth Elevation

Earthquake Activity

City Distance Mag. Time & Date
Minimum magnitude displayed is 2.5.

Coastal Water Temperatures

Place Temperature

Nearby Weather Stations